Terminal Aerodrome Forecast
Issued by NWS Twin Cities, MN

Home | Current Version | Previous Version | Graphics & Text | Print | Product List | Glossary On
Versions: 1 2 3 4 5 6 7 8 9 10 11 12 13 14
000
FTUS43 KMPX 170500
TAFEAU
TAF
KEAU 170520Z 1706/1806 31011KT P6SM -SN OVC019
     FM172100 33005KT P6SM SCT020 BKN030
     FM180000 34003KT P6SM BKN100=

USA.gov is the U.S. government's official web portal to all federal, state and local government web resources and services.